createdAt,value
2023-05-01T00:02:17.893Z,3.07
2023-05-01T00:04:47.230Z,3.03
2023-05-01T00:07:14.061Z,4.63
2023-05-01T00:09:45.904Z,3.03
2023-05-01T00:12:15.511Z,3.30
2023-05-01T00:14:47.126Z,2.80
2023-05-01T00:17:14.341Z,3.87
2023-05-01T00:19:43.363Z,5.10
2023-05-01T00:22:12.709Z,2.80
2023-05-01T00:24:39.579Z,3.33
2023-05-01T00:27:09.338Z,2.57
2023-05-01T00:29:36.762Z,2.33
2023-05-01T00:32:10.970Z,2.87
2023-05-01T00:34:40.511Z,2.70
2023-05-01T00:37:07.621Z,2.50
2023-05-01T00:39:36.823Z,4.43
2023-05-01T00:42:03.778Z,3.33
2023-05-01T00:44:35.472Z,3.30
2023-05-01T00:47:05.089Z,4.23
2023-05-01T00:49:38.576Z,2.90
2023-05-01T00:52:13.224Z,2.97
2023-05-01T00:54:40.486Z,3.57
2023-05-01T00:57:11.934Z,3.07
2023-05-01T00:59:39.648Z,4.77
2023-05-01T01:02:12.688Z,4.47
2023-05-01T01:04:48.886Z,3.00
2023-05-01T01:07:42.161Z,2.77
2023-05-01T01:10:20.756Z,3.07
2023-05-01T01:13:28.957Z,3.63
2023-05-01T01:16:23.839Z,3.23
2023-05-01T01:19:25.822Z,3.67
2023-05-01T01:22:04.353Z,3.47
2023-05-01T01:25:10.816Z,4.30
2023-05-01T01:28:14.088Z,3.50
2023-05-01T01:30:58.522Z,3.43
2023-05-01T01:33:58.277Z,3.13
2023-05-01T01:36:48.650Z,3.10
2023-05-01T01:39:57.381Z,3.13
2023-05-01T01:42:42.997Z,3.60
2023-05-01T01:45:23.802Z,3.30
2023-05-01T01:47:54.100Z,3.10
2023-05-01T01:50:26.272Z,3.77
2023-05-01T01:52:58.463Z,3.80
2023-05-01T01:55:31.290Z,3.30
2023-05-01T01:58:00.286Z,2.80
2023-05-01T02:00:34.672Z,3.03
2023-05-01T02:03:03.690Z,3.40
2023-05-01T02:05:37.710Z,3.67
2023-05-01T02:08:05.421Z,3.77
2023-05-01T02:10:37.356Z,3.83
2023-05-01T02:13:07.566Z,3.47
2023-05-01T02:15:36.646Z,4.20
2023-05-01T02:18:05.362Z,4.20
2023-05-01T02:20:34.176Z,3.50
2023-05-01T02:23:04.883Z,3.50
2023-05-01T02:25:39.268Z,3.30
2023-05-01T02:28:17.005Z,4.23
2023-05-01T02:30:49.273Z,3.30
2023-05-01T02:33:18.481Z,4.23
2023-05-01T02:35:47.409Z,3.40
2023-05-01T02:38:19.936Z,5.30
2023-05-01T02:40:58.322Z,4.87
2023-05-01T02:43:28.711Z,4.73
2023-05-01T02:45:59.682Z,4.47
2023-05-01T02:48:31.377Z,3.77
2023-05-01T02:51:01.191Z,3.57
2023-05-01T02:53:33.554Z,3.37
2023-05-01T02:56:11.223Z,5.67
2023-05-01T02:58:41.024Z,4.17
2023-05-01T03:01:07.981Z,3.77
2023-05-01T03:03:39.922Z,3.73
2023-05-01T03:06:07.462Z,3.93
2023-05-01T03:08:37.145Z,4.23
2023-05-01T03:11:08.274Z,3.90
2023-05-01T03:13:35.911Z,4.30
2023-05-01T03:16:08.965Z,3.90
2023-05-01T03:18:40.408Z,4.97
2023-05-01T03:21:12.791Z,3.63
2023-05-01T03:23:39.622Z,4.20
2023-05-01T03:26:13.638Z,5.53
2023-05-01T03:28:42.507Z,5.43
2023-05-01T03:31:11.769Z,4.50
2023-05-01T03:33:40.048Z,3.63
2023-05-01T03:36:09.682Z,3.47
2023-05-01T03:38:38.888Z,4.33
2023-05-01T03:41:16.267Z,3.60
2023-05-01T03:44:01.447Z,3.60
2023-05-01T03:46:44.832Z,3.97
2023-05-01T03:49:18.266Z,5.37
2023-05-01T03:51:47.962Z,3.60
2023-05-01T03:54:18.053Z,3.47
2023-05-01T03:57:01.268Z,3.50
2023-05-01T03:59:33.310Z,3.43
2023-05-01T04:02:03.242Z,3.73
2023-05-01T04:04:33.229Z,4.67
2023-05-01T04:07:00.815Z,3.70
2023-05-01T04:09:30.238Z,3.67
2023-05-01T04:11:58.759Z,3.47
2023-05-01T04:14:25.671Z,3.83
2023-05-01T04:16:55.323Z,3.50
2023-05-01T04:19:24.633Z,3.83
2023-05-01T04:21:56.788Z,3.70
2023-05-01T04:24:26.151Z,5.67
2023-05-01T04:26:55.887Z,4.40
2023-05-01T04:29:25.268Z,4.03
2023-05-01T04:31:54.877Z,3.00
2023-05-01T04:34:21.730Z,3.83
2023-05-01T04:36:57.105Z,3.47
2023-05-01T04:39:24.498Z,3.57
2023-05-01T04:41:57.175Z,3.80
2023-05-01T04:44:27.313Z,4.60
2023-05-01T04:46:56.962Z,5.53
2023-05-01T04:49:23.847Z,3.67
2023-05-01T04:51:52.844Z,3.40
2023-05-01T04:54:24.872Z,3.83
2023-05-01T04:56:54.313Z,4.77
2023-05-01T04:59:26.277Z,3.87
2023-05-01T05:01:59.534Z,3.50
2023-05-01T05:04:33.634Z,4.57
2023-05-01T05:07:00.945Z,3.90
2023-05-01T05:09:46.299Z,5.00
2023-05-01T05:12:15.225Z,3.37
2023-05-01T05:14:44.952Z,3.47
2023-05-01T05:17:17.771Z,3.47
2023-05-01T05:19:44.731Z,3.53
2023-05-01T05:22:16.414Z,3.77
2023-05-01T05:25:05.120Z,5.23
2023-05-01T05:27:36.369Z,5.53
2023-05-01T05:30:05.828Z,4.27
2023-05-01T05:32:34.826Z,3.77
2023-05-01T05:35:01.932Z,3.80
2023-05-01T05:37:28.889Z,3.70
2023-05-01T05:39:58.893Z,4.60
2023-05-01T05:42:26.387Z,4.67
2023-05-01T05:44:57.847Z,4.83
2023-05-01T05:47:29.287Z,4.47
2023-05-01T05:49:58.293Z,4.73
2023-05-01T05:52:25.751Z,3.87
2023-05-01T05:54:58.322Z,3.60
2023-05-01T05:57:26.123Z,2.80
2023-05-01T05:59:55.583Z,3.90
2023-05-01T06:02:29.559Z,2.97
2023-05-01T06:04:59.250Z,3.80
2023-05-01T06:07:28.787Z,3.93
2023-05-01T06:10:01.889Z,3.90
2023-05-01T06:12:29.627Z,3.10
2023-05-01T06:14:57.161Z,4.43
2023-05-01T06:17:29.124Z,3.93
2023-05-01T06:19:58.821Z,4.03
2023-05-01T06:22:35.772Z,3.23
2023-05-01T06:25:20.628Z,4.43
2023-05-01T06:27:49.930Z,4.47
2023-05-01T06:30:23.186Z,3.53
2023-05-01T06:32:54.603Z,3.47
2023-05-01T06:35:25.283Z,6.20
2023-05-01T06:37:52.188Z,3.87
2023-05-01T06:40:26.665Z,3.60
2023-05-01T06:42:57.188Z,3.50
2023-05-01T06:45:29.882Z,4.63
2023-05-01T06:47:59.035Z,3.37
2023-05-01T06:50:28.925Z,2.90
2023-05-01T06:52:55.772Z,3.57
2023-05-01T06:55:27.333Z,3.83
2023-05-01T06:57:54.197Z,4.57
2023-05-01T07:00:23.820Z,3.20
2023-05-01T07:02:53.169Z,3.43
2023-05-01T07:05:22.691Z,3.70
2023-05-01T07:08:01.357Z,3.30
2023-05-01T07:10:31.321Z,3.53
2023-05-01T07:12:58.416Z,4.13
2023-05-01T07:15:29.942Z,3.20
2023-05-01T07:17:58.132Z,3.60
2023-05-01T07:20:25.024Z,3.43
2023-05-01T07:22:51.895Z,3.37
2023-05-01T07:25:21.347Z,5.17
2023-05-01T07:27:50.682Z,3.63
2023-05-01T07:30:21.836Z,6.70
2023-05-01T07:32:48.842Z,4.73
2023-05-01T07:35:18.280Z,3.77
2023-05-01T07:37:51.588Z,4.13
2023-05-01T07:40:18.993Z,5.90
2023-05-01T07:42:48.117Z,4.17
2023-05-01T07:45:15.033Z,3.30
2023-05-01T07:47:42.021Z,3.23
2023-05-01T07:50:13.251Z,2.90
2023-05-01T07:52:40.173Z,3.13
2023-05-01T07:55:09.855Z,4.03
2023-05-01T07:57:39.190Z,6.27
2023-05-01T08:00:06.875Z,3.60
2023-05-01T08:02:42.540Z,3.70
2023-05-01T08:05:13.268Z,3.30
2023-05-01T08:07:40.312Z,3.37
2023-05-01T08:10:09.690Z,3.17
2023-05-01T08:12:39.420Z,3.50
2023-05-01T08:15:09.282Z,4.97
2023-05-01T08:17:41.444Z,4.53
2023-05-01T08:20:13.913Z,3.60
2023-05-01T08:22:47.366Z,4.10
2023-05-01T08:25:16.814Z,4.53
2023-05-01T08:27:45.956Z,3.47
2023-05-01T08:30:15.906Z,3.73
2023-05-01T08:32:44.929Z,3.87
2023-05-01T08:35:11.914Z,4.67
2023-05-01T08:37:41.016Z,5.80
2023-05-01T08:40:13.287Z,3.37
2023-05-01T08:42:44.744Z,3.53
2023-05-01T08:45:18.978Z,3.50
2023-05-01T08:47:51.648Z,4.43
2023-05-01T08:50:19.251Z,3.87
2023-05-01T08:52:51.260Z,3.63
2023-05-01T08:55:23.618Z,3.97
2023-05-01T08:57:52.517Z,4.33
2023-05-01T09:00:21.391Z,3.63
2023-05-01T09:02:53.128Z,4.50
2023-05-01T09:05:22.950Z,3.77
2023-05-01T09:07:49.978Z,4.40
2023-05-01T09:10:20.158Z,3.33
2023-05-01T09:12:57.626Z,4.23
2023-05-01T09:15:27.007Z,3.23
2023-05-01T09:17:55.422Z,3.90
2023-05-01T09:20:26.833Z,5.77
2023-05-01T09:22:53.828Z,3.00
2023-05-01T09:25:22.723Z,3.27
2023-05-01T09:27:52.636Z,4.20
2023-05-01T09:30:40.341Z,3.83
2023-05-01T09:33:15.060Z,4.50
2023-05-01T09:35:57.173Z,3.10
2023-05-01T09:38:29.148Z,3.80
2023-05-01T09:41:08.186Z,3.40
2023-05-01T09:43:37.977Z,3.47
2023-05-01T09:46:12.776Z,3.70
2023-05-01T09:48:40.110Z,3.43
2023-05-01T09:51:40.538Z,3.43
2023-05-01T09:54:21.208Z,5.20
2023-05-01T09:56:49.851Z,3.63
2023-05-01T09:59:20.893Z,6.17
2023-05-01T10:01:50.083Z,5.23
2023-05-01T10:04:17.453Z,3.43
2023-05-01T10:06:49.485Z,5.47
2023-05-01T10:09:29.336Z,3.10
2023-05-01T10:11:57.713Z,5.70
2023-05-01T10:14:26.920Z,3.30
2023-05-01T10:16:57.837Z,4.20
2023-05-01T10:19:25.320Z,4.40
2023-05-01T10:21:54.699Z,3.47
2023-05-01T10:24:22.162Z,3.40
2023-05-01T10:26:53.654Z,3.63
2023-05-01T10:29:26.419Z,4.13
2023-05-01T10:31:56.260Z,4.07
2023-05-01T10:34:27.716Z,3.60
2023-05-01T10:37:07.092Z,3.60
2023-05-01T10:39:36.649Z,4.70
2023-05-01T10:42:17.742Z,3.70
2023-05-01T10:44:49.499Z,4.43
2023-05-01T10:47:27.709Z,3.20
2023-05-01T10:50:07.157Z,4.50
2023-05-01T10:53:14.287Z,3.70
2023-05-01T10:55:47.308Z,5.20
2023-05-01T10:58:40.056Z,3.63
2023-05-01T11:01:40.220Z,2.80
2023-05-01T11:04:48.222Z,3.90
2023-05-01T11:07:18.935Z,3.50
2023-05-01T11:09:59.044Z,3.47
2023-05-01T11:12:46.707Z,3.13
2023-05-01T11:15:33.673Z,3.67
2023-05-01T11:18:03.846Z,3.63
2023-05-01T11:20:36.810Z,3.07
2023-05-01T11:23:06.974Z,2.70
2023-05-01T11:25:36.157Z,2.57
2023-05-01T11:28:06.879Z,3.23
2023-05-01T11:30:41.426Z,3.10
2023-05-01T11:33:10.583Z,3.30
2023-05-01T11:35:38.678Z,2.80
2023-05-01T11:38:07.920Z,3.33
2023-05-01T11:40:35.043Z,4.00
2023-05-01T11:43:06.823Z,3.50
2023-05-01T11:45:37.419Z,2.70
2023-05-01T11:48:18.839Z,2.73
2023-05-01T11:50:45.714Z,3.43
2023-05-01T11:53:18.508Z,4.10
2023-05-01T11:55:49.301Z,2.93
2023-05-01T11:58:17.005Z,3.07
2023-05-01T12:00:44.061Z,3.47
2023-05-01T12:03:14.414Z,3.10
2023-05-01T12:05:48.937Z,2.87
2023-05-01T12:08:23.383Z,2.70
2023-05-01T12:10:52.690Z,4.00
2023-05-01T12:13:20.596Z,2.43
2023-05-01T12:15:52.675Z,2.77
2023-05-01T12:18:22.913Z,2.73
2023-05-01T12:20:55.203Z,2.43
2023-05-01T12:23:37.810Z,2.93
2023-05-01T12:26:26.063Z,2.70
2023-05-01T12:29:04.097Z,3.13
2023-05-01T12:31:38.189Z,2.47
2023-05-01T12:34:07.603Z,5.23
2023-05-01T12:36:37.146Z,2.73
2023-05-01T12:39:16.868Z,2.70
2023-05-01T12:41:48.558Z,2.90
2023-05-01T12:44:30.631Z,2.40
2023-05-01T12:47:02.822Z,2.70
2023-05-01T12:49:31.828Z,3.13
2023-05-01T12:52:03.462Z,2.60
2023-05-01T12:54:39.653Z,3.63
2023-05-01T12:57:14.388Z,2.37
2023-05-01T12:59:46.162Z,2.90
2023-05-01T13:02:17.041Z,2.73
2023-05-01T13:04:49.166Z,2.40
2023-05-01T13:07:19.196Z,4.93
2023-05-01T13:09:53.273Z,3.03
2023-05-01T13:12:20.891Z,3.00
2023-05-01T13:14:48.146Z,2.70
2023-05-01T13:17:24.197Z,3.07
2023-05-01T13:20:04.050Z,2.70
2023-05-01T13:22:38.714Z,2.90
2023-05-01T13:25:21.376Z,2.43
2023-05-01T13:27:54.147Z,2.43
2023-05-01T13:30:36.671Z,2.57
2023-05-01T13:33:05.754Z,2.83
2023-05-01T13:35:39.691Z,2.33
2023-05-01T13:38:15.910Z,2.20
2023-05-01T13:40:45.445Z,3.00
2023-05-01T13:43:17.932Z,2.70
2023-05-01T13:45:47.288Z,2.97
2023-05-01T13:48:18.303Z,2.90
2023-05-01T13:50:45.272Z,3.00
2023-05-01T13:53:15.211Z,2.43
2023-05-01T13:55:42.559Z,2.50
2023-05-01T13:58:11.562Z,2.60
2023-05-01T14:00:39.852Z,2.33
2023-05-01T14:03:13.228Z,3.20
2023-05-01T14:05:40.486Z,2.50
2023-05-01T14:08:10.700Z,2.07
2023-05-01T14:10:38.462Z,2.40
2023-05-01T14:13:05.339Z,2.73
2023-05-01T14:15:36.987Z,2.37
2023-05-01T14:18:11.471Z,2.20
2023-05-01T14:20:42.926Z,2.23
2023-05-01T14:23:16.658Z,2.27
2023-05-01T14:25:45.660Z,2.60
2023-05-01T14:28:12.490Z,2.10
2023-05-01T14:30:44.604Z,2.27
2023-05-01T14:33:13.987Z,2.07
2023-05-01T14:35:55.741Z,2.57
2023-05-01T14:38:26.618Z,3.00
2023-05-01T14:40:56.206Z,2.50
2023-05-01T14:43:27.373Z,2.50
2023-05-01T14:45:55.469Z,2.70
2023-05-01T14:48:35.835Z,2.63
2023-05-01T14:51:10.474Z,2.60
2023-05-01T14:53:44.941Z,2.70
2023-05-01T14:56:16.921Z,4.03
2023-05-01T14:58:48.937Z,2.57
2023-05-01T15:01:20.616Z,3.13
2023-05-01T15:03:49.768Z,2.60
2023-05-01T15:06:16.974Z,2.13
2023-05-01T15:08:44.260Z,3.50
2023-05-01T15:11:14.123Z,2.17
2023-05-01T15:13:44.216Z,2.47
2023-05-01T15:16:18.116Z,2.40
2023-05-01T15:18:49.591Z,2.43
2023-05-01T15:21:21.025Z,3.00
2023-05-01T15:23:50.307Z,2.37
2023-05-01T15:26:24.232Z,2.97
2023-05-01T15:28:53.398Z,2.20
2023-05-01T15:31:20.280Z,3.43
2023-05-01T15:33:52.260Z,2.90
2023-05-01T15:36:21.347Z,2.33
2023-05-01T15:38:50.416Z,1.87
2023-05-01T15:41:19.506Z,2.27
2023-05-01T15:43:50.549Z,2.53
2023-05-01T15:46:22.484Z,4.53
2023-05-01T15:48:51.714Z,2.17
2023-05-01T15:51:23.118Z,2.70
2023-05-01T15:53:52.354Z,2.20
2023-05-01T15:56:19.300Z,2.13
2023-05-01T15:58:48.622Z,2.60
2023-05-01T16:01:18.093Z,2.60
2023-05-01T16:03:50.750Z,3.33
2023-05-01T16:06:17.709Z,2.47
2023-05-01T16:08:44.549Z,3.00
2023-05-01T16:11:12.842Z,2.50
2023-05-01T16:13:47.706Z,2.70
2023-05-01T16:16:27.069Z,2.60
2023-05-01T16:18:56.840Z,2.63
2023-05-01T16:21:26.036Z,2.70
2023-05-01T16:23:56.626Z,2.17
2023-05-01T16:26:31.526Z,2.33
2023-05-01T16:29:07.804Z,2.90
2023-05-01T16:31:47.325Z,2.90
2023-05-01T16:34:25.429Z,2.33
2023-05-01T16:36:52.928Z,2.30
2023-05-01T16:39:22.139Z,2.47
2023-05-01T16:41:54.342Z,2.20
2023-05-01T16:44:24.376Z,2.20
2023-05-01T16:46:54.413Z,2.47
2023-05-01T16:49:25.238Z,2.60
2023-05-01T16:51:56.981Z,2.20
2023-05-01T16:54:31.825Z,2.60
2023-05-01T16:56:59.257Z,2.30
2023-05-01T16:59:28.812Z,2.17
2023-05-01T17:01:58.149Z,2.50
2023-05-01T17:04:27.662Z,1.87
2023-05-01T17:06:59.235Z,2.80
2023-05-01T17:09:28.459Z,2.30
2023-05-01T17:12:05.906Z,2.10
2023-05-01T17:14:37.856Z,2.90
2023-05-01T17:17:09.374Z,3.37
2023-05-01T17:19:38.857Z,2.43
2023-05-01T17:22:06.971Z,3.20
2023-05-01T17:24:37.761Z,3.70
2023-05-01T17:27:04.768Z,2.30
2023-05-01T17:29:34.810Z,2.80
2023-05-01T17:32:02.558Z,2.40
2023-05-01T17:34:34.102Z,2.57
2023-05-01T17:37:03.194Z,2.77
2023-05-01T17:39:32.488Z,2.33
2023-05-01T17:41:59.443Z,2.77
2023-05-01T17:44:30.853Z,2.27
2023-05-01T17:46:57.982Z,2.40
2023-05-01T17:49:27.205Z,2.60
2023-05-01T17:51:56.621Z,3.33
2023-05-01T17:54:30.850Z,2.60
2023-05-01T17:57:02.918Z,3.27
2023-05-01T17:59:32.115Z,3.87
2023-05-01T18:02:01.671Z,2.97
2023-05-01T18:04:36.027Z,3.43
2023-05-01T18:07:03.679Z,3.23
2023-05-01T18:09:35.372Z,3.17
2023-05-01T18:12:07.450Z,2.93
2023-05-01T18:14:36.642Z,2.67
2023-05-01T18:17:03.783Z,3.37
2023-05-01T18:19:32.834Z,3.53
2023-05-01T18:21:59.679Z,2.50
2023-05-01T18:24:29.599Z,2.80
2023-05-01T18:26:57.360Z,3.33
2023-05-01T18:29:24.381Z,3.03
2023-05-01T18:31:54.485Z,3.37
2023-05-01T18:34:21.820Z,3.13
2023-05-01T18:36:53.287Z,3.37
2023-05-01T18:39:22.620Z,3.13
2023-05-01T18:41:56.479Z,4.33
2023-05-01T18:44:27.895Z,2.97
2023-05-01T18:46:56.983Z,2.93
2023-05-01T18:49:24.999Z,3.07
2023-05-01T18:51:52.225Z,3.40
2023-05-01T18:54:24.143Z,2.70
2023-05-01T18:56:55.144Z,4.17
2023-05-01T18:59:26.870Z,3.97
2023-05-01T19:01:58.671Z,3.90
2023-05-01T19:04:25.694Z,5.17
2023-05-01T19:06:54.856Z,4.93
2023-05-01T19:09:21.773Z,6.00
2023-05-01T19:11:51.546Z,8.53
2023-05-01T19:14:18.615Z,7.37
2023-05-01T19:16:50.133Z,7.83
2023-05-01T19:19:19.939Z,7.60
2023-05-01T19:21:48.956Z,6.07
2023-05-01T19:24:18.252Z,5.60
2023-05-01T19:26:45.115Z,5.07
2023-05-01T19:29:19.139Z,4.97
2023-05-01T19:31:48.617Z,4.17
2023-05-01T19:34:18.114Z,6.03
2023-05-01T19:36:44.972Z,4.33
2023-05-01T19:39:14.270Z,3.20
2023-05-01T19:41:44.667Z,3.30
2023-05-01T19:44:14.100Z,3.30
2023-05-01T19:46:45.692Z,2.73
2023-05-01T19:49:12.821Z,2.10
2023-05-01T19:51:42.253Z,3.13
2023-05-01T19:54:09.079Z,2.00
2023-05-01T19:56:38.402Z,2.00
2023-05-01T19:59:05.557Z,2.30
2023-05-01T20:01:32.438Z,3.10
2023-05-01T20:04:05.022Z,2.83
2023-05-01T20:06:32.246Z,2.37
2023-05-01T20:08:59.088Z,2.00
2023-05-01T20:11:30.515Z,1.77
2023-05-01T20:13:57.488Z,1.90
2023-05-01T20:16:30.054Z,1.50
2023-05-01T20:18:59.407Z,1.90
2023-05-01T20:21:26.479Z,1.90
2023-05-01T20:23:54.371Z,1.80
2023-05-01T20:26:21.484Z,1.93
2023-05-01T20:28:52.172Z,2.87
2023-05-01T20:31:21.363Z,2.20
2023-05-01T20:33:48.367Z,2.33
2023-05-01T20:36:17.825Z,1.90
2023-05-01T20:38:52.913Z,2.30
2023-05-01T20:41:23.752Z,1.97
2023-05-01T20:43:52.926Z,1.87
2023-05-01T20:46:22.930Z,1.70
2023-05-01T20:48:54.684Z,2.23
2023-05-01T20:51:21.982Z,2.20
2023-05-01T20:53:53.679Z,2.00
2023-05-01T20:56:20.766Z,2.07
2023-05-01T20:58:47.601Z,1.93
2023-05-01T21:01:16.672Z,1.83
2023-05-01T21:03:48.301Z,2.80
2023-05-01T21:06:15.825Z,1.70
2023-05-01T21:08:48.392Z,4.10
2023-05-01T21:11:19.740Z,1.73
2023-05-01T21:13:48.911Z,1.67
2023-05-01T21:16:20.795Z,1.70
2023-05-01T21:18:52.456Z,1.60
2023-05-01T21:21:21.585Z,1.77
2023-05-01T21:23:51.331Z,1.97
2023-05-01T21:26:19.610Z,1.73
2023-05-01T21:28:50.927Z,1.87
2023-05-01T21:31:17.834Z,1.80
2023-05-01T21:33:47.791Z,2.03
2023-05-01T21:36:19.813Z,1.90
2023-05-01T21:38:48.970Z,1.87
2023-05-01T21:41:18.356Z,4.10
2023-05-01T21:43:45.482Z,1.80
2023-05-01T21:46:21.615Z,1.47
2023-05-01T21:48:51.581Z,2.30
2023-05-01T21:51:31.739Z,1.83
2023-05-01T21:54:01.546Z,2.20
2023-05-01T21:56:33.488Z,2.20
2023-05-01T21:59:05.738Z,1.97
2023-05-01T22:01:35.109Z,1.90
2023-05-01T22:04:02.403Z,3.07
2023-05-01T22:06:34.274Z,2.53
2023-05-01T22:09:07.992Z,1.90
2023-05-01T22:11:34.894Z,2.20
2023-05-01T22:14:03.885Z,1.60
2023-05-01T22:16:33.552Z,2.20
2023-05-01T22:19:05.150Z,2.43
2023-05-01T22:21:34.447Z,1.77
2023-05-01T22:24:03.644Z,1.80
2023-05-01T22:26:32.819Z,1.83
2023-05-01T22:28:59.714Z,1.80
2023-05-01T22:31:28.828Z,2.00
2023-05-01T22:33:57.950Z,3.17
2023-05-01T22:36:27.454Z,2.33
2023-05-01T22:38:59.706Z,1.90
2023-05-01T22:41:26.640Z,2.37
2023-05-01T22:44:03.678Z,1.93
2023-05-01T22:46:33.105Z,2.30
2023-05-01T22:49:04.558Z,2.40
2023-05-01T22:51:36.421Z,2.57
2023-05-01T22:54:08.286Z,2.10
2023-05-01T22:56:35.117Z,2.10
2023-05-01T22:59:02.213Z,4.90
2023-05-01T23:01:33.688Z,2.30
2023-05-01T23:04:02.983Z,4.53
2023-05-01T23:06:37.018Z,2.10
2023-05-01T23:09:03.981Z,2.10
2023-05-01T23:11:33.231Z,1.80
2023-05-01T23:14:05.059Z,2.67
2023-05-01T23:16:42.664Z,2.03
2023-05-01T23:19:21.409Z,1.50
2023-05-01T23:21:49.456Z,1.80
2023-05-01T23:24:21.052Z,1.80
2023-05-01T23:26:47.929Z,1.80
2023-05-01T23:29:18.180Z,2.97
2023-05-01T23:31:52.217Z,1.97
2023-05-01T23:34:21.349Z,1.97
2023-05-01T23:36:48.222Z,2.20
2023-05-01T23:39:16.094Z,1.93
2023-05-01T23:41:45.665Z,2.73
2023-05-01T23:44:14.989Z,2.00
2023-05-01T23:46:45.706Z,2.77
2023-05-01T23:49:14.668Z,2.43
2023-05-01T23:51:44.243Z,2.53
2023-05-01T23:54:11.297Z,2.47
2023-05-01T23:56:40.512Z,2.37
2023-05-01T23:59:09.469Z,2.87
